createdAt,value
2018-07-17T00:01:46.369Z,6.40
2018-07-17T00:04:14.675Z,6.70
2018-07-17T00:06:42.809Z,5.93
2018-07-17T00:09:11.180Z,6.70
2018-07-17T00:11:39.410Z,6.43
2018-07-17T00:14:07.936Z,6.40
2018-07-17T00:16:36.225Z,6.00
2018-07-17T00:19:04.462Z,6.27
2018-07-17T00:21:32.670Z,6.70
2018-07-17T00:24:01.042Z,6.13
2018-07-17T00:26:29.253Z,6.10
2018-07-17T00:28:57.493Z,6.00
2018-07-17T00:31:25.770Z,5.93
2018-07-17T00:33:54.179Z,6.33
2018-07-17T00:36:22.422Z,6.03
2018-07-17T00:38:50.703Z,6.70
2018-07-17T00:41:19.080Z,6.43
2018-07-17T00:43:47.394Z,5.60
2018-07-17T00:46:15.837Z,7.20
2018-07-17T00:48:44.215Z,7.10
2018-07-17T00:51:12.522Z,7.20
2018-07-17T00:53:40.870Z,7.03
2018-07-17T00:56:09.137Z,6.93
2018-07-17T00:58:37.140Z,6.73
2018-07-17T01:01:04.921Z,7.10
2018-07-17T01:03:38.667Z,6.87
2018-07-17T01:06:12.498Z,7.40
2018-07-17T01:08:46.273Z,6.70
2018-07-17T01:11:20.020Z,7.93
2018-07-17T01:14:06.936Z,6.93
2018-07-17T01:16:35.129Z,7.13
2018-07-17T01:19:03.506Z,7.23
2018-07-17T01:21:31.840Z,6.43
2018-07-17T01:24:00.312Z,7.00
2018-07-17T01:26:28.802Z,7.57
2018-07-17T01:28:57.176Z,7.10
2018-07-17T01:31:25.654Z,7.00
2018-07-17T01:33:53.974Z,7.40
2018-07-17T01:36:22.202Z,7.80
2018-07-17T01:38:50.481Z,7.30
2018-07-17T01:41:18.800Z,6.73
2018-07-17T01:43:47.242Z,7.03
2018-07-17T01:46:15.492Z,7.03
2018-07-17T01:48:43.582Z,7.27
2018-07-17T01:51:11.899Z,7.50
2018-07-17T01:53:40.126Z,6.90
2018-07-17T01:56:08.205Z,7.27
2018-07-17T01:58:36.613Z,7.63
2018-07-17T02:01:04.754Z,6.97
2018-07-17T02:03:32.601Z,7.33
2018-07-17T02:06:00.892Z,6.93
2018-07-17T02:08:29.153Z,6.93
2018-07-17T02:10:57.243Z,6.63
2018-07-17T02:13:25.513Z,7.03
2018-07-17T02:15:53.882Z,6.97
2018-07-17T02:18:22.070Z,7.00
2018-07-17T02:20:50.332Z,7.30
2018-07-17T02:23:18.548Z,6.93
2018-07-17T02:25:46.781Z,7.37
2018-07-17T02:28:15.057Z,6.97
2018-07-17T02:30:43.478Z,7.30
2018-07-17T02:33:11.613Z,7.50
2018-07-17T02:35:39.769Z,7.50
2018-07-17T02:38:08.206Z,7.47
2018-07-17T02:40:36.328Z,7.13
2018-07-17T02:43:04.704Z,6.87
2018-07-17T02:45:33.020Z,7.03
2018-07-17T02:48:01.233Z,6.77
2018-07-17T02:50:29.537Z,7.57
2018-07-17T02:52:57.854Z,7.57
2018-07-17T02:55:26.302Z,7.83
2018-07-17T02:57:54.566Z,6.70
2018-07-17T03:00:22.870Z,6.97
2018-07-17T03:02:51.321Z,7.13
2018-07-17T03:05:19.490Z,7.23
2018-07-17T03:07:47.725Z,7.10
2018-07-17T03:10:16.253Z,6.97
2018-07-17T03:12:44.145Z,6.77
2018-07-17T03:15:12.550Z,7.10
2018-07-17T03:17:40.973Z,6.77
2018-07-17T03:20:09.149Z,6.50
2018-07-17T03:22:37.524Z,7.37
2018-07-17T03:25:05.986Z,7.40
2018-07-17T03:27:34.281Z,7.10
2018-07-17T03:30:02.725Z,7.53
2018-07-17T03:32:30.938Z,7.20
2018-07-17T03:34:59.213Z,6.87
2018-07-17T03:37:27.643Z,7.07
2018-07-17T03:39:55.857Z,6.63
2018-07-17T03:42:24.250Z,7.67
2018-07-17T03:44:52.576Z,6.73
2018-07-17T03:47:20.689Z,7.43
2018-07-17T03:49:49.064Z,7.80
2018-07-17T03:52:17.419Z,7.87
2018-07-17T03:54:45.820Z,8.73
2018-07-17T03:57:14.089Z,9.27
2018-07-17T03:59:42.373Z,12.27
2018-07-17T04:02:10.763Z,8.70
2018-07-17T04:04:39.062Z,11.77
2018-07-17T04:07:06.953Z,11.30
2018-07-17T04:09:35.179Z,10.53
2018-07-17T04:12:03.358Z,8.90
2018-07-17T04:14:31.301Z,9.37
2018-07-17T04:16:59.681Z,8.50
2018-07-17T04:19:27.997Z,8.70
2018-07-17T04:21:56.273Z,8.20
2018-07-17T04:24:24.573Z,8.57
2018-07-17T04:26:53.301Z,10.83
2018-07-17T04:29:21.434Z,8.50
2018-07-17T04:31:49.933Z,7.93
2018-07-17T04:34:18.236Z,8.07
2018-07-17T04:36:46.540Z,8.90
2018-07-17T04:39:14.791Z,8.00
2018-07-17T04:41:43.057Z,8.47
2018-07-17T04:44:11.586Z,8.50
2018-07-17T04:46:39.910Z,8.67
2018-07-17T04:49:08.302Z,8.70
2018-07-17T04:51:36.628Z,9.13
2018-07-17T04:54:05.054Z,9.50
2018-07-17T04:56:33.233Z,9.83
2018-07-17T04:59:01.744Z,9.20
2018-07-17T05:01:30.340Z,9.00
2018-07-17T05:03:58.670Z,8.57
2018-07-17T05:06:26.869Z,9.63
2018-07-17T05:08:55.109Z,9.00
2018-07-17T05:11:23.486Z,8.70
2018-07-17T05:13:51.801Z,9.07
2018-07-17T05:16:20.140Z,9.40
2018-07-17T05:18:48.518Z,9.17
2018-07-17T05:21:16.938Z,9.00
2018-07-17T05:23:45.066Z,8.97
2018-07-17T05:26:13.340Z,9.43
2018-07-17T05:28:41.652Z,9.07
2018-07-17T05:31:09.902Z,8.93
2018-07-17T05:33:38.265Z,9.33
2018-07-17T05:36:06.894Z,9.57
2018-07-17T05:38:34.725Z,8.33
2018-07-17T05:41:03.000Z,9.13
2018-07-17T05:43:31.276Z,7.70
2018-07-17T05:45:59.562Z,7.73
2018-07-17T05:48:27.957Z,8.13
2018-07-17T05:50:56.107Z,9.27
2018-07-17T05:53:24.390Z,9.43
2018-07-17T05:55:52.886Z,8.60
2018-07-17T05:58:21.161Z,8.50
2018-07-17T06:00:49.401Z,7.10
2018-07-17T06:03:17.793Z,8.03
2018-07-17T06:05:46.053Z,7.57
2018-07-17T06:08:14.229Z,8.20
2018-07-17T06:10:42.627Z,7.87
2018-07-17T06:13:10.881Z,9.00
2018-07-17T06:15:39.252Z,10.70
2018-07-17T06:18:07.540Z,10.00
2018-07-17T06:20:35.801Z,8.50
2018-07-17T06:23:04.213Z,7.73
2018-07-17T06:25:32.468Z,7.70
2018-07-17T06:28:00.744Z,7.77
2018-07-17T06:30:29.018Z,8.20
2018-07-17T06:32:57.389Z,10.93
2018-07-17T06:35:25.773Z,9.20
2018-07-17T06:37:54.037Z,8.30
2018-07-17T06:40:22.426Z,8.13
2018-07-17T06:42:50.825Z,7.90
2018-07-17T06:45:19.291Z,7.90
2018-07-17T06:47:47.570Z,8.07
2018-07-17T06:50:16.051Z,7.60
2018-07-17T06:52:44.189Z,8.17
2018-07-17T06:55:12.606Z,7.63
2018-07-17T06:57:40.974Z,7.97
2018-07-17T07:00:09.445Z,6.77
2018-07-17T07:02:37.618Z,8.27
2018-07-17T07:05:06.006Z,7.90
2018-07-17T07:07:34.282Z,8.00
2018-07-17T07:10:02.153Z,8.57
2018-07-17T07:12:30.617Z,8.37
2018-07-17T07:14:58.998Z,7.23
2018-07-17T07:17:27.187Z,7.73
2018-07-17T07:19:55.466Z,8.80
2018-07-17T07:22:23.937Z,8.00
2018-07-17T07:24:52.310Z,8.03
2018-07-17T07:27:20.794Z,8.57
2018-07-17T07:29:49.167Z,7.63
2018-07-17T07:32:17.453Z,8.00
2018-07-17T07:34:45.822Z,7.93
2018-07-17T07:37:14.140Z,8.23
2018-07-17T07:39:42.342Z,8.40
2018-07-17T07:42:10.745Z,8.17
2018-07-17T07:44:39.113Z,7.57
2018-07-17T07:47:07.621Z,8.00
2018-07-17T07:49:35.781Z,9.10
2018-07-17T07:52:04.158Z,8.23
2018-07-17T07:54:32.325Z,8.07
2018-07-17T07:57:00.507Z,7.23
2018-07-17T07:59:28.875Z,7.93
2018-07-17T08:01:57.038Z,8.37
2018-07-17T08:04:25.076Z,7.77
2018-07-17T08:06:53.403Z,8.10
2018-07-17T08:09:21.674Z,9.23
2018-07-17T08:11:49.777Z,9.23
2018-07-17T08:14:18.121Z,9.90
2018-07-17T08:16:46.609Z,8.60
2018-07-17T08:19:14.870Z,7.10
2018-07-17T08:21:43.367Z,8.77
2018-07-17T08:24:11.770Z,8.23
2018-07-17T08:26:40.223Z,8.37
2018-07-17T08:29:08.402Z,8.47
2018-07-17T08:31:36.887Z,8.10
2018-07-17T08:34:05.240Z,7.37
2018-07-17T08:36:33.664Z,8.80
2018-07-17T08:39:02.002Z,9.30
2018-07-17T08:41:30.390Z,8.40
2018-07-17T08:43:58.662Z,8.13
2018-07-17T08:46:27.132Z,7.83
2018-07-17T08:48:55.410Z,8.63
2018-07-17T08:51:23.697Z,8.80
2018-07-17T08:53:52.069Z,8.53
2018-07-17T08:56:20.448Z,8.57
2018-07-17T08:58:48.722Z,8.90
2018-07-17T09:01:17.246Z,8.20
2018-07-17T09:03:45.574Z,8.27
2018-07-17T09:06:13.745Z,8.40
2018-07-17T09:08:42.021Z,8.00
2018-07-17T09:11:10.300Z,8.03
2018-07-17T09:13:38.582Z,7.80
2018-07-17T09:16:07.052Z,7.80
2018-07-17T09:18:36.159Z,7.73
2018-07-17T09:21:04.459Z,7.97
2018-07-17T09:23:32.909Z,7.70
2018-07-17T09:26:01.069Z,7.90
2018-07-17T09:31:11.649Z,8.40
2018-07-17T09:33:39.989Z,7.33
2018-07-17T09:36:08.019Z,7.80
2018-07-17T09:38:36.278Z,8.40
2018-07-17T09:41:04.558Z,8.20
2018-07-17T09:43:32.937Z,7.90
2018-07-17T09:46:01.215Z,7.20
2018-07-17T09:48:29.490Z,7.20
2018-07-17T09:50:57.957Z,7.30
2018-07-17T09:53:26.151Z,7.40
2018-07-17T09:55:54.424Z,7.60
2018-07-17T09:58:22.701Z,8.00
2018-07-17T10:00:56.445Z,7.77
2018-07-17T10:03:24.668Z,8.60
2018-07-17T10:05:52.850Z,7.43
2018-07-17T10:08:21.222Z,7.37
2018-07-17T10:10:49.689Z,6.60
2018-07-17T10:13:18.087Z,7.83
2018-07-17T10:15:46.478Z,6.83
2018-07-17T10:18:14.837Z,6.97
2018-07-17T10:20:43.018Z,8.40
2018-07-17T10:23:11.391Z,8.73
2018-07-17T10:25:39.560Z,8.90
2018-07-17T10:28:07.838Z,7.17
2018-07-17T10:30:36.101Z,7.80
2018-07-17T10:33:04.489Z,7.47
2018-07-17T10:35:32.765Z,7.77
2018-07-17T10:38:01.038Z,5.37
2018-07-17T10:40:29.408Z,5.13
2018-07-17T10:42:57.566Z,4.30
2018-07-17T10:45:26.069Z,4.87
2018-07-17T10:47:54.555Z,4.30
2018-07-17T10:50:22.826Z,4.13
2018-07-17T10:52:51.088Z,4.10
2018-07-17T10:55:19.474Z,3.83
2018-07-17T10:57:47.878Z,3.80
2018-07-17T11:00:16.029Z,4.13
2018-07-17T11:02:44.401Z,3.43
2018-07-17T11:05:12.693Z,3.73
2018-07-17T11:07:41.066Z,4.40
2018-07-17T11:10:09.304Z,4.83
2018-07-17T11:12:37.605Z,5.43
2018-07-17T11:15:05.991Z,7.07
2018-07-17T11:17:34.369Z,6.40
2018-07-17T11:20:02.651Z,6.77
2018-07-17T11:22:30.793Z,7.40
2018-07-17T11:24:59.191Z,6.10
2018-07-17T11:27:27.370Z,5.63
2018-07-17T11:29:55.648Z,4.90
2018-07-17T11:32:24.021Z,5.33
2018-07-17T11:34:52.289Z,5.10
2018-07-17T11:37:20.675Z,4.83
2018-07-17T11:39:48.923Z,5.00
2018-07-17T11:42:17.476Z,4.63
2018-07-17T11:44:45.605Z,4.63
2018-07-17T11:47:13.882Z,4.83
2018-07-17T11:49:42.206Z,5.20
2018-07-17T11:52:10.079Z,5.93
2018-07-17T11:54:38.502Z,5.60
2018-07-17T11:57:06.886Z,4.83
2018-07-17T11:59:35.313Z,5.40
2018-07-17T12:02:03.891Z,6.10
2018-07-17T12:04:32.210Z,5.33
2018-07-17T12:07:00.486Z,5.00
2018-07-17T12:09:28.801Z,4.63
2018-07-17T12:11:57.137Z,5.07
2018-07-17T12:14:25.517Z,5.50
2018-07-17T12:16:53.789Z,5.47
2018-07-17T12:19:22.045Z,5.17
2018-07-17T12:21:50.450Z,4.67
2018-07-17T12:24:18.729Z,5.00
2018-07-17T12:26:47.106Z,4.70
2018-07-17T12:29:15.378Z,4.30
2018-07-17T12:31:43.849Z,4.57
2018-07-17T12:34:12.246Z,5.27
2018-07-17T12:36:40.503Z,6.07
2018-07-17T12:39:10.361Z,5.93
2018-07-17T12:41:38.699Z,5.73
2018-07-17T12:44:06.964Z,5.83
2018-07-17T12:46:35.023Z,5.37
2018-07-17T12:49:03.454Z,5.60
2018-07-17T12:51:31.905Z,5.60
2018-07-17T12:54:00.342Z,5.20
2018-07-17T12:56:28.766Z,5.40
2018-07-17T12:58:57.017Z,5.50
2018-07-17T13:01:25.036Z,5.67
2018-07-17T13:03:53.490Z,5.00
2018-07-17T13:06:21.766Z,5.50
2018-07-17T13:08:49.745Z,6.33
2018-07-17T13:11:18.248Z,6.00
2018-07-17T13:13:46.581Z,6.03
2018-07-17T13:16:14.618Z,5.10
2018-07-17T13:18:42.937Z,5.10
2018-07-17T13:21:11.313Z,4.63
2018-07-17T13:23:39.609Z,5.20
2018-07-17T13:26:07.973Z,4.60
2018-07-17T13:28:36.324Z,5.00
2018-07-17T13:31:04.722Z,4.83
2018-07-17T13:33:33.010Z,5.07
2018-07-17T13:36:01.274Z,6.57
2018-07-17T13:38:29.542Z,7.07
2018-07-17T13:40:57.820Z,7.07
2018-07-17T13:43:26.201Z,7.10
2018-07-17T13:45:54.581Z,8.63
2018-07-17T13:48:22.746Z,8.23
2018-07-17T13:50:51.035Z,8.33
2018-07-17T13:53:19.308Z,8.67
2018-07-17T13:55:47.462Z,9.03
2018-07-17T13:58:15.852Z,7.67
2018-07-17T14:00:44.127Z,8.10
2018-07-17T14:03:12.501Z,8.50
2018-07-17T14:05:40.787Z,7.73
2018-07-17T14:08:09.257Z,9.10
2018-07-17T14:10:37.656Z,8.53
2018-07-17T14:13:06.234Z,8.70
2018-07-17T14:15:34.503Z,8.20
2018-07-17T14:18:02.981Z,8.67
2018-07-17T14:20:31.365Z,8.03
2018-07-17T14:22:59.533Z,9.00
2018-07-17T14:25:28.006Z,8.40
2018-07-17T14:27:56.389Z,7.90
2018-07-17T14:30:24.760Z,8.10
2018-07-17T14:32:53.004Z,7.63
2018-07-17T14:35:21.421Z,8.37
2018-07-17T14:37:49.698Z,7.77
2018-07-17T14:40:18.081Z,7.73
2018-07-17T14:42:46.519Z,7.80
2018-07-17T14:45:14.830Z,8.40
2018-07-17T14:47:42.973Z,9.10
2018-07-17T14:50:11.381Z,8.57
2018-07-17T14:52:39.669Z,8.60
2018-07-17T14:55:09.216Z,9.20
2018-07-17T14:57:37.529Z,9.67
2018-07-17T15:00:06.311Z,10.13
2018-07-17T15:02:34.706Z,9.83
2018-07-17T15:05:03.177Z,9.50
2018-07-17T15:07:31.358Z,8.47
2018-07-17T15:09:59.830Z,8.90
2018-07-17T15:12:28.105Z,7.60
2018-07-17T15:14:56.492Z,8.27
2018-07-17T15:17:24.809Z,7.93
2018-07-17T15:19:53.146Z,7.47
2018-07-17T15:22:21.520Z,7.70
2018-07-17T15:24:49.594Z,7.90
2018-07-17T15:27:17.857Z,7.83
2018-07-17T15:29:46.241Z,8.00
2018-07-17T15:32:14.527Z,8.00
2018-07-17T15:34:42.797Z,7.13
2018-07-17T15:37:11.074Z,7.10
2018-07-17T15:39:39.248Z,7.20
2018-07-17T15:42:07.733Z,7.10
2018-07-17T15:44:35.901Z,7.17
2018-07-17T15:47:04.374Z,7.37
2018-07-17T15:49:32.704Z,7.17
2018-07-17T15:52:00.939Z,7.20
2018-07-17T15:54:29.311Z,7.20
2018-07-17T15:56:57.788Z,6.40
2018-07-17T15:59:26.176Z,6.67
2018-07-17T16:01:54.662Z,6.73
2018-07-17T16:04:22.888Z,6.13
2018-07-17T16:06:51.297Z,6.17
2018-07-17T16:09:20.389Z,5.27
2018-07-17T16:11:48.760Z,5.50
2018-07-17T16:14:17.533Z,5.40
2018-07-17T16:16:45.633Z,5.30
2018-07-17T16:19:13.793Z,5.23
2018-07-17T16:21:42.180Z,5.47
2018-07-17T16:24:10.457Z,5.60
2018-07-17T16:26:38.480Z,5.47
2018-07-17T16:29:07.000Z,5.50
2018-07-17T16:31:35.377Z,5.73
2018-07-17T16:34:03.639Z,5.73
2018-07-17T16:36:32.035Z,5.93
2018-07-17T16:39:00.409Z,6.20
2018-07-17T16:41:28.668Z,6.23
2018-07-17T16:43:56.961Z,5.83
2018-07-17T16:46:25.241Z,5.37
2018-07-17T16:48:53.312Z,5.17
2018-07-17T16:51:21.589Z,5.13
2018-07-17T16:53:49.865Z,5.17
2018-07-17T16:56:18.142Z,6.00
2018-07-17T16:58:46.408Z,5.93
2018-07-17T17:01:14.762Z,5.00
2018-07-17T17:03:43.056Z,5.27
2018-07-17T17:06:11.342Z,5.73
2018-07-17T17:08:39.615Z,5.77
2018-07-17T17:11:07.493Z,5.57
2018-07-17T17:13:35.645Z,5.27
2018-07-17T17:16:04.038Z,4.93
2018-07-17T17:18:31.872Z,4.97
2018-07-17T17:21:00.330Z,4.70
2018-07-17T17:23:28.556Z,4.77
2018-07-17T17:25:56.826Z,4.83
2018-07-17T17:28:24.997Z,4.43
2018-07-17T17:30:53.485Z,4.10
2018-07-17T17:33:21.649Z,4.77
2018-07-17T17:35:50.021Z,4.10
2018-07-17T17:38:18.414Z,4.23
2018-07-17T17:40:46.894Z,4.50
2018-07-17T17:43:15.166Z,4.63
2018-07-17T17:45:43.438Z,4.13
2018-07-17T17:48:11.723Z,4.70
2018-07-17T17:50:39.981Z,4.40
2018-07-17T17:53:08.366Z,4.43
2018-07-17T17:55:36.749Z,3.93
2018-07-17T17:58:05.222Z,4.70
2018-07-17T18:00:33.407Z,4.17
2018-07-17T18:03:01.773Z,4.07
2018-07-17T18:05:29.936Z,4.20
2018-07-17T18:07:58.434Z,4.20
2018-07-17T18:10:26.610Z,4.97
2018-07-17T18:12:54.986Z,4.67
2018-07-17T18:15:23.255Z,4.57
2018-07-17T18:17:51.538Z,4.10
2018-07-17T18:20:19.474Z,4.80
2018-07-17T18:22:47.540Z,4.77
2018-07-17T18:25:15.944Z,4.40
2018-07-17T18:27:43.877Z,4.60
2018-07-17T18:30:12.292Z,4.57
2018-07-17T18:32:40.573Z,4.30
2018-07-17T18:35:08.957Z,4.57
2018-07-17T18:37:37.317Z,4.13
2018-07-17T18:40:05.778Z,4.50
2018-07-17T18:42:34.085Z,5.00
2018-07-17T18:45:02.502Z,4.50
2018-07-17T18:47:31.664Z,4.03
2018-07-17T18:52:29.274Z,4.67
2018-07-17T18:54:57.439Z,3.97
2018-07-17T18:57:25.899Z,4.60
2018-07-17T18:59:54.049Z,4.30
2018-07-17T19:02:23.280Z,4.70
2018-07-17T19:04:51.532Z,4.23
2018-07-17T19:07:19.805Z,4.30
2018-07-17T19:09:48.295Z,4.30
2018-07-17T19:12:16.571Z,4.33
2018-07-17T19:14:44.451Z,4.27
2018-07-17T19:17:12.805Z,3.97
2018-07-17T19:19:41.064Z,4.37
2018-07-17T19:22:09.463Z,4.47
2018-07-17T19:24:37.547Z,4.50
2018-07-17T19:27:05.942Z,4.53
2018-07-17T19:29:34.069Z,4.20
2018-07-17T19:32:02.588Z,4.10
2018-07-17T19:34:31.774Z,4.20
2018-07-17T19:37:00.401Z,4.87
2018-07-17T19:39:28.649Z,4.13
2018-07-17T19:41:56.885Z,4.30
2018-07-17T19:44:25.265Z,4.43
2018-07-17T19:46:53.541Z,4.57
2018-07-17T19:49:21.921Z,4.07
2018-07-17T19:51:50.203Z,4.10
2018-07-17T19:54:18.374Z,3.90
2018-07-17T19:56:46.641Z,4.07
2018-07-17T19:59:14.918Z,4.00
2018-07-17T20:01:43.397Z,4.33
2018-07-17T20:04:11.674Z,4.10
2018-07-17T20:06:40.062Z,4.30
2018-07-17T20:09:08.786Z,4.00
2018-07-17T20:11:37.123Z,4.23
2018-07-17T20:14:05.481Z,4.30
2018-07-17T20:16:33.776Z,4.13
2018-07-17T20:19:02.050Z,4.57
2018-07-17T20:21:30.317Z,4.30
2018-07-17T20:23:58.594Z,4.27
2018-07-17T20:26:26.977Z,4.63
2018-07-17T20:28:55.154Z,4.30
2018-07-17T20:31:23.432Z,4.40
2018-07-17T20:33:51.853Z,4.73
2018-07-17T20:36:19.929Z,4.27
2018-07-17T20:38:48.359Z,4.87
2018-07-17T20:41:16.738Z,4.20
2018-07-17T20:43:45.101Z,4.53
2018-07-17T20:46:13.390Z,4.30
2018-07-17T20:48:41.248Z,4.30
2018-07-17T20:51:10.085Z,4.70
2018-07-17T20:53:38.205Z,4.77
2018-07-17T20:56:06.601Z,4.00
2018-07-17T20:58:34.771Z,4.67
2018-07-17T21:01:03.044Z,4.27
2018-07-17T21:03:31.222Z,4.47
2018-07-17T21:05:59.694Z,3.97
2018-07-17T21:08:27.865Z,4.43
2018-07-17T21:10:56.045Z,4.23
2018-07-17T21:13:24.113Z,4.43
2018-07-17T21:15:52.491Z,4.63
2018-07-17T21:18:20.780Z,4.13
2018-07-17T21:20:48.933Z,4.80
2018-07-17T21:23:17.218Z,5.03
2018-07-17T21:25:45.486Z,4.97
2018-07-17T21:28:13.870Z,4.70
2018-07-17T21:30:42.243Z,4.83
2018-07-17T21:33:10.519Z,5.03
2018-07-17T21:35:38.694Z,5.07
2018-07-17T21:38:06.966Z,4.93
2018-07-17T21:40:35.245Z,4.80
2018-07-17T21:43:03.413Z,5.17
2018-07-17T21:45:31.794Z,5.20
2018-07-17T21:47:59.966Z,5.20
2018-07-17T21:50:28.448Z,4.93
2018-07-17T21:52:56.624Z,5.03
2018-07-17T21:55:25.025Z,5.00
2018-07-17T21:57:53.275Z,5.27
2018-07-17T22:00:21.554Z,5.00
2018-07-17T22:02:50.022Z,5.20
2018-07-17T22:05:18.309Z,5.00
2018-07-17T22:07:46.786Z,4.93
2018-07-17T22:10:15.155Z,5.07
2018-07-17T22:12:43.538Z,5.43
2018-07-17T22:15:11.870Z,5.50
2018-07-17T22:17:40.185Z,5.50
2018-07-17T22:20:08.430Z,5.40
2018-07-17T22:22:36.845Z,6.10
2018-07-17T22:25:05.026Z,5.47
2018-07-17T22:27:33.502Z,6.17
2018-07-17T22:30:01.779Z,5.27
2018-07-17T22:32:30.053Z,5.23
2018-07-17T22:34:58.234Z,5.70
2018-07-17T22:37:26.604Z,5.83
2018-07-17T22:39:54.879Z,6.93
2018-07-17T22:42:23.249Z,5.63
2018-07-17T22:44:51.439Z,5.77
2018-07-17T22:47:19.695Z,5.63
2018-07-17T22:49:47.778Z,5.37
2018-07-17T22:52:16.019Z,5.30
2018-07-17T22:54:44.330Z,5.17
2018-07-17T22:57:12.383Z,5.53
2018-07-17T22:59:40.670Z,5.50
2018-07-17T23:02:09.091Z,5.57
2018-07-17T23:04:36.922Z,5.30
2018-07-17T23:07:05.191Z,5.70
2018-07-17T23:09:33.466Z,5.40
2018-07-17T23:12:01.816Z,5.90
2018-07-17T23:14:30.121Z,5.97
2018-07-17T23:16:58.386Z,5.40
2018-07-17T23:19:26.342Z,4.97
2018-07-17T23:21:54.530Z,5.80
2018-07-17T23:24:22.705Z,5.00
2018-07-17T23:26:50.983Z,5.63
2018-07-17T23:29:19.367Z,5.67
2018-07-17T23:31:47.629Z,5.47
2018-07-17T23:34:15.924Z,5.93
2018-07-17T23:36:44.202Z,5.50
2018-07-17T23:39:12.462Z,5.73
2018-07-17T23:41:41.003Z,5.27
2018-07-17T23:44:09.322Z,5.53
2018-07-17T23:46:37.809Z,5.57
2018-07-17T23:49:06.070Z,5.50
2018-07-17T23:51:34.446Z,5.63
2018-07-17T23:54:02.739Z,5.73
2018-07-17T23:56:31.098Z,5.37
2018-07-17T23:58:59.490Z,5.30
